Time;durP1;ratioP1;P1;durP2;ratioP2;P2;SDS_P1;SDS_P2;PMS_P1;PMS_P2;Temp;Humidity;BMP_temperature;BMP_pressure;BME280_temperature;BME280_humidity;BME280_pressure;Samples;Min_cycle;Max_cycle;Signal;HPM_P1;HPM_P2
2020/12/26 00:01:37;;;;;;;1.20;0.60;;;;;;;2.07;73.81;99200.63;1722698;80;21309;-61
2020/12/26 00:04:04;;;;;;;1.10;0.53;;;;;;;2.08;73.55;99201.05;1723854;80;21499;-62
2020/12/26 00:06:31;;;;;;;0.90;0.50;;;;;;;2.10;73.56;99196.59;1724165;80;21820;-61
2020/12/26 00:08:58;;;;;;;1.53;0.50;;;;;;;2.10;73.51;99194.80;1726809;80;21210;-61
2020/12/26 00:11:26;;;;;;;1.10;0.60;;;;;;;2.12;73.47;99198.30;1720001;80;21493;-60
2020/12/26 00:13:53;;;;;;;1.00;0.60;;;;;;;2.13;73.22;99205.78;1722705;80;21230;-60
2020/12/26 00:16:20;;;;;;;1.83;0.50;;;;;;;2.10;73.16;99209.41;1717228;80;21606;-60
2020/12/26 00:18:48;;;;;;;1.10;0.50;;;;;;;2.07;73.07;99216.10;1721207;80;21250;-61
2020/12/26 00:21:16;;;;;;;0.97;0.60;;;;;;;2.08;73.09;99222.28;1720261;80;21970;-61
2020/12/26 00:23:44;;;;;;;1.10;0.50;;;;;;;2.05;73.13;99219.23;1724557;80;21143;-61
2020/12/26 00:26:15;;;;;;;1.10;0.60;;;;;;;2.04;73.13;99221.95;1670941;84;21116;-60
2020/12/26 00:28:43;;;;;;;1.27;0.60;;;;;;;2.03;73.25;99227.71;1723165;80;21238;-60
2020/12/26 00:31:13;;;;;;;2.53;0.80;;;;;;;2.02;73.25;99214.47;1720206;80;22816;-61
2020/12/26 00:33:41;;;;;;;1.77;0.77;;;;;;;2.02;73.31;99223.31;1718903;80;21179;-61
2020/12/26 00:36:08;;;;;;;2.60;0.90;;;;;;;2.00;73.19;99209.64;1720447;80;21460;-61
2020/12/26 00:38:36;;;;;;;3.20;1.00;;;;;;;2.00;73.13;99221.13;1720424;80;21362;-60
2020/12/26 00:41:03;;;;;;;4.07;1.10;;;;;;;2.00;73.10;99228.22;1716319;80;21430;-61
2020/12/26 00:43:30;;;;;;;1.40;0.87;;;;;;;1.99;73.12;99227.34;1721019;80;21377;-60
2020/12/26 00:45:58;;;;;;;1.63;0.90;;;;;;;2.00;73.01;99229.09;1725800;80;21143;-61
2020/12/26 00:48:25;;;;;;;1.10;0.60;;;;;;;1.99;72.88;99228.67;1723934;80;21134;-60
2020/12/26 00:50:52;;;;;;;1.47;0.70;;;;;;;2.01;72.81;99226.87;1719238;80;21629;-61
2020/12/26 00:53:19;;;;;;;0.90;0.50;;;;;;;2.05;72.74;99231.64;1723176;80;21104;-61
2020/12/26 00:55:47;;;;;;;0.73;0.50;;;;;;;2.08;72.49;99232.91;1686286;82;22100;-60
2020/12/26 00:58:15;;;;;;;0.70;0.40;;;;;;;2.11;72.47;99234.17;1719945;80;21186;-62
2020/12/26 01:00:42;;;;;;;0.50;0.30;;;;;;;2.13;72.29;99231.88;1720276;80;21598;-60
2020/12/26 01:03:27;;;;;;;0.90;0.40;;;;;;;2.17;72.19;99227.39;1826844;75;26579;-62
2020/12/26 01:05:55;;;;;;;0.43;0.30;;;;;;;2.14;72.11;99236.29;1790918;77;21209;-64
2020/12/26 01:08:22;;;;;;;1.70;0.40;;;;;;;2.11;72.10;99235.50;1796085;77;21429;-62
2020/12/26 01:10:49;;;;;;;0.90;0.50;;;;;;;2.06;72.07;99232.94;1792032;78;21089;-63
2020/12/26 01:15:54;;;;;;;0.70;0.50;;;;;;;2.04;72.14;99235.23;1787765;77;26686;-61
2020/12/26 01:18:22;;;;;;;0.70;0.37;;;;;;;1.98;72.20;99233.56;1737441;80;21171;-62
2020/12/26 01:20:49;;;;;;;0.60;0.30;;;;;;;1.94;72.19;99237.20;1767979;78;23063;-61
2020/12/26 01:23:17;;;;;;;0.70;0.40;;;;;;;1.93;72.29;99227.49;1763062;78;21186;-62
2020/12/26 01:25:44;;;;;;;0.80;0.30;;;;;;;1.91;72.34;99229.30;1758989;78;22511;-64
2020/12/26 01:28:11;;;;;;;0.73;0.33;;;;;;;1.92;72.22;99233.70;1766089;78;21261;-62
2020/12/26 01:30:38;;;;;;;0.70;0.40;;;;;;;1.92;72.18;99228.84;1765880;78;21175;-61
2020/12/26 01:33:05;;;;;;;1.13;0.53;;;;;;;1.89;72.25;99228.00;1765603;78;21568;-62
2020/12/26 01:35:33;;;;;;;1.20;0.40;;;;;;;1.88;72.25;99230.22;1766122;78;21455;-61
2020/12/26 01:38:00;;;;;;;1.00;0.50;;;;;;;1.86;72.15;99225.88;1765287;78;21210;-60
2020/12/26 01:40:27;;;;;;;1.53;0.40;;;;;;;1.85;72.05;99234.30;1766578;78;21472;-61
2020/12/26 01:42:55;;;;;;;1.47;0.30;;;;;;;1.86;71.99;99221.90;1763141;78;21229;-62
2020/12/26 01:45:22;;;;;;;0.90;0.40;;;;;;;1.89;72.13;99225.80;1773077;78;22176;-61
2020/12/26 01:47:49;;;;;;;1.30;0.40;;;;;;;1.93;72.04;99226.16;1765469;78;21175;-61
2020/12/26 01:50:17;;;;;;;1.00;0.40;;;;;;;1.96;71.88;99218.59;1762003;78;21603;-62
2020/12/26 01:52:44;;;;;;;2.83;0.50;;;;;;;1.98;71.83;99213.65;1765607;78;21225;-62
2020/12/26 01:55:12;;;;;;;0.87;0.40;;;;;;;2.00;71.74;99224.24;1763985;78;21182;-61
2020/12/26 01:57:41;;;;;;;2.03;0.43;;;;;;;1.99;71.69;99219.38;1714094;81;21672;-61
2020/12/26 02:00:08;;;;;;;1.43;0.50;;;;;;;2.00;71.73;99221.59;1707500;81;21243;-61
2020/12/26 02:02:43;;;;;;;2.70;0.50;;;;;;;1.99;71.57;99226.02;1733092;80;21413;-61
2020/12/26 02:05:11;;;;;;;0.67;0.40;;;;;;;1.98;71.50;99231.36;1730172;80;21175;-61
2020/12/26 02:07:39;;;;;;;0.80;0.40;;;;;;;1.97;71.42;99232.26;1739439;80;21414;-61
2020/12/26 02:10:06;;;;;;;1.63;0.50;;;;;;;1.94;71.30;99230.56;1749083;80;21280;-61
2020/12/26 02:12:33;;;;;;;0.87;0.40;;;;;;;1.94;71.38;99234.55;1751663;80;21195;-61
2020/12/26 02:15:00;;;;;;;1.07;0.40;;;;;;;1.94;71.27;99239.86;1751332;80;21598;-61
2020/12/26 02:17:29;;;;;;;1.10;0.50;;;;;;;1.92;71.21;99240.34;1736482;80;21223;-62
2020/12/26 02:19:56;;;;;;;1.20;0.60;;;;;;;1.90;71.24;99247.45;1734822;80;21578;-61
2020/12/26 02:22:24;;;;;;;1.77;0.70;;;;;;;1.86;71.28;99245.78;1736450;80;21659;-61
2020/12/26 02:24:51;;;;;;;1.30;0.67;;;;;;;1.84;71.41;99251.12;1735367;80;21228;-62
2020/12/26 02:27:18;;;;;;;1.50;0.70;;;;;;;1.84;71.58;99251.57;1734374;80;21743;-60
2020/12/26 02:29:45;;;;;;;1.53;0.80;;;;;;;1.82;71.51;99255.58;1736312;80;21427;-58
2020/12/26 02:32:13;;;;;;;1.30;0.90;;;;;;;1.81;71.53;99260.46;1734599;80;21607;-61
2020/12/26 02:34:41;;;;;;;1.67;0.73;;;;;;;1.79;71.57;99262.72;1733777;80;21864;-60
2020/12/26 02:37:08;;;;;;;1.50;0.80;;;;;;;1.78;71.64;99255.69;1739316;80;22027;-62
2020/12/26 02:39:36;;;;;;;1.00;0.70;;;;;;;1.77;71.62;99251.28;1740137;80;21183;-62
2020/12/26 02:42:03;;;;;;;1.03;0.50;;;;;;;1.75;71.59;99245.13;1735557;80;21356;-60
2020/12/26 02:44:30;;;;;;;1.33;0.70;;;;;;;1.73;71.45;99249.13;1735850;80;21184;-59
2020/12/26 02:46:57;;;;;;;1.50;0.50;;;;;;;1.74;71.53;99250.01;1733959;80;21798;-61
2020/12/26 02:49:24;;;;;;;2.43;1.10;;;;;;;1.72;71.49;99247.38;1733635;80;21256;-59
2020/12/26 02:51:52;;;;;;;1.40;0.70;;;;;;;1.72;71.32;99239.87;1734924;80;21539;-63
2020/12/26 02:54:19;;;;;;;1.37;0.40;;;;;;;1.71;71.20;99236.80;1695410;80;21243;-62
2020/12/26 02:56:46;;;;;;;1.60;0.50;;;;;;;1.71;71.10;99249.61;1735858;80;21212;-62
2020/12/26 02:59:13;;;;;;;1.23;0.50;;;;;;;1.69;71.00;99250.12;1737324;80;22125;-63
2020/12/26 03:01:41;;;;;;;0.60;0.33;;;;;;;1.70;71.01;99253.65;1735474;80;21222;-62
2020/12/26 03:04:08;;;;;;;0.60;0.40;;;;;;;1.71;71.02;99260.22;1737561;80;21613;-62
2020/12/26 03:06:35;;;;;;;1.17;0.40;;;;;;;1.70;71.04;99261.61;1734894;80;21212;-62
2020/12/26 03:09:03;;;;;;;2.97;0.40;;;;;;;1.72;71.08;99263.75;1734895;80;21219;-63
2020/12/26 03:11:30;;;;;;;1.10;0.40;;;;;;;1.73;71.01;99262.40;1737634;80;22230;-62
2020/12/26 03:13:58;;;;;;;0.60;0.40;;;;;;;1.73;71.05;99266.83;1735881;80;21203;-62
2020/12/26 03:16:25;;;;;;;0.97;0.50;;;;;;;1.73;71.07;99268.16;1743551;80;21203;-62
2020/12/26 03:18:52;;;;;;;1.90;0.40;;;;;;;1.73;71.11;99261.08;1740028;80;21219;-63
2020/12/26 03:21:19;;;;;;;3.90;0.40;;;;;;;1.73;71.07;99265.05;1739478;80;21222;-62
2020/12/26 03:23:47;;;;;;;0.90;0.60;;;;;;;1.72;71.06;99273.04;1739199;80;21279;-62
2020/12/26 03:26:14;;;;;;;1.43;0.60;;;;;;;1.71;71.11;99274.81;1740989;80;21197;-62
2020/12/26 03:28:41;;;;;;;0.90;0.50;;;;;;;1.71;71.18;99278.80;1744031;80;21541;-62
2020/12/26 03:31:09;;;;;;;1.00;0.43;;;;;;;1.69;71.09;99280.63;1741069;80;21796;-62
2020/12/26 03:33:37;;;;;;;1.83;0.40;;;;;;;1.67;71.20;99286.41;1713105;80;21610;-61
2020/12/26 03:36:04;;;;;;;0.80;0.40;;;;;;;1.65;71.24;99282.03;1741434;80;22471;-63
2020/12/26 03:38:32;;;;;;;2.97;0.50;;;;;;;1.62;71.15;99279.42;1742305;80;21190;-63
2020/12/26 03:41:00;;;;;;;2.20;0.50;;;;;;;1.60;71.20;99279.94;1740657;80;21207;-64
2020/12/26 03:43:27;;;;;;;0.80;0.40;;;;;;;1.56;71.26;99269.83;1742777;80;21183;-62
2020/12/26 03:45:54;;;;;;;1.00;0.40;;;;;;;1.55;71.27;99273.38;1742804;80;21187;-62
2020/12/26 03:48:22;;;;;;;0.67;0.40;;;;;;;1.55;71.23;99279.13;1741744;80;21289;-62
2020/12/26 03:50:50;;;;;;;0.67;0.40;;;;;;;1.56;71.24;99274.25;1741844;80;21143;-63
2020/12/26 03:53:17;;;;;;;0.80;0.40;;;;;;;1.56;71.19;99275.58;1744243;80;21211;-62
2020/12/26 03:55:44;;;;;;;0.90;0.50;;;;;;;1.55;71.25;99275.16;1741447;80;21197;-62
2020/12/26 03:58:11;;;;;;;0.67;0.40;;;;;;;1.53;71.30;99276.05;1741151;80;21187;-62
2020/12/26 04:00:39;;;;;;;0.77;0.40;;;;;;;1.53;71.21;99274.33;1741623;80;21738;-63
2020/12/26 04:03:06;;;;;;;2.13;0.50;;;;;;;1.50;71.16;99268.17;1741826;80;21183;-63
2020/12/26 04:05:34;;;;;;;2.23;0.43;;;;;;;1.48;71.19;99272.62;1739549;80;21466;-63
2020/12/26 04:08:01;;;;;;;0.97;0.40;;;;;;;1.44;71.07;99275.39;1740964;80;21195;-63
2020/12/26 04:10:28;;;;;;;0.60;0.40;;;;;;;1.40;71.18;99275.88;1741613;80;21218;-62
2020/12/26 04:12:55;;;;;;;0.40;0.30;;;;;;;1.38;71.25;99279.01;1688319;82;21217;-62
2020/12/26 04:15:23;;;;;;;0.57;0.33;;;;;;;1.35;71.27;99280.41;1739070;80;21177;-62
2020/12/26 04:17:50;;;;;;;0.70;0.40;;;;;;;1.34;71.31;99284.41;1736757;80;21192;-62
2020/12/26 04:20:18;;;;;;;0.90;0.30;;;;;;;1.33;71.31;99285.31;1732569;80;21651;-62
2020/12/26 04:22:45;;;;;;;0.90;0.40;;;;;;;1.29;71.41;99292.43;1734034;80;21196;-62
2020/12/26 04:25:13;;;;;;;0.77;0.50;;;;;;;1.28;71.49;99301.73;1732763;80;23595;-62
2020/12/26 04:27:40;;;;;;;0.70;0.40;;;;;;;1.26;71.48;99291.63;1735478;80;21157;-62
2020/12/26 04:30:08;;;;;;;1.30;0.50;;;;;;;1.24;71.57;99293.43;1732591;80;21163;-62
2020/12/26 04:32:35;;;;;;;2.10;0.40;;;;;;;1.23;71.71;99303.16;1733874;80;21203;-62
2020/12/26 04:35:02;;;;;;;1.10;0.50;;;;;;;1.24;71.77;99305.36;1734491;80;21571;-62
2020/12/26 04:37:29;;;;;;;0.80;0.57;;;;;;;1.24;71.92;99310.22;1736273;80;21396;-62
2020/12/26 04:39:56;;;;;;;0.80;0.40;;;;;;;1.24;71.93;99310.22;1735348;80;21272;-61
2020/12/26 04:42:24;;;;;;;1.00;0.40;;;;;;;1.26;71.89;99315.05;1738788;80;21200;-62
2020/12/26 04:44:53;;;;;;;2.50;0.50;;;;;;;1.26;71.99;99323.45;1712575;81;21204;-62
2020/12/26 04:47:40;;;;;;;0.90;0.40;;;;;;;1.25;72.04;99322.57;1743936;80;21512;-62
2020/12/26 04:50:07;;;;;;;1.00;0.50;;;;;;;1.24;72.05;99324.80;1738399;80;21326;-62
2020/12/26 04:52:35;;;;;;;1.00;0.40;;;;;;;1.23;72.16;99318.19;1739095;80;21124;-62
2020/12/26 04:55:04;;;;;;;1.10;0.50;;;;;;;1.23;72.01;99323.05;1735702;80;21142;-62
2020/12/26 04:57:36;;;;;;;1.10;0.60;;;;;;;1.25;72.02;99330.97;1684097;83;21224;-62
2020/12/26 05:00:05;;;;;;;0.90;0.43;;;;;;;1.27;72.04;99334.48;1735689;80;21457;-62
2020/12/26 05:02:38;;;;;;;1.63;0.50;;;;;;;1.27;72.16;99335.81;1734942;80;21275;-63
2020/12/26 05:05:05;;;;;;;0.93;0.40;;;;;;;1.28;72.27;99333.10;1713714;81;21159;-62
2020/12/26 05:07:37;;;;;;;1.03;0.40;;;;;;;1.29;72.21;99330.00;1736119;80;21176;-61
2020/12/26 05:10:05;;;;;;;0.83;0.40;;;;;;;1.29;72.24;99321.59;1734783;80;21212;-62
2020/12/26 05:12:33;;;;;;;1.07;0.50;;;;;;;1.27;72.31;99315.47;1734373;80;21160;-62
2020/12/26 05:15:03;;;;;;;1.00;0.50;;;;;;;1.27;72.36;99327.41;1733380;80;21206;-62
2020/12/26 05:17:31;;;;;;;1.00;0.50;;;;;;;1.24;72.34;99324.80;1734751;80;21832;-62
2020/12/26 05:19:58;;;;;;;1.60;0.50;;;;;;;1.23;72.33;99328.80;1738120;80;21438;-62
2020/12/26 05:22:27;;;;;;;0.83;0.50;;;;;;;1.18;72.44;99334.19;1735661;80;21104;-62
2020/12/26 05:24:54;;;;;;;1.63;0.50;;;;;;;1.16;72.59;99338.64;1733797;80;21413;-62
2020/12/26 05:27:25;;;;;;;0.90;0.47;;;;;;;1.12;72.71;99339.58;1671559;80;21606;-62
2020/12/26 05:29:52;;;;;;;0.97;0.50;;;;;;;1.09;72.79;99348.92;1733102;80;21188;-62
2020/12/26 05:32:19;;;;;;;0.90;0.60;;;;;;;1.04;72.90;99348.98;1737991;80;21218;-62
2020/12/26 05:34:47;;;;;;;1.40;0.70;;;;;;;0.98;72.90;99358.37;1698031;80;22824;-62
2020/12/26 05:37:17;;;;;;;1.10;0.50;;;;;;;0.92;73.00;99353.63;1736349;80;21173;-62
2020/12/26 05:39:44;;;;;;;1.03;0.50;;;;;;;0.88;73.11;99356.75;1736960;80;21651;-62
2020/12/26 05:42:19;;;;;;;1.53;0.70;;;;;;;0.86;73.19;99355.02;1738180;80;21151;-62
2020/12/26 05:44:48;;;;;;;1.10;0.50;;;;;;;0.82;73.34;99356.86;1737966;80;21125;-62
2020/12/26 05:47:16;;;;;;;1.20;0.60;;;;;;;0.79;73.51;99363.52;1734329;80;21199;-62
2020/12/26 05:49:43;;;;;;;1.00;0.60;;;;;;;0.77;73.63;99369.77;1736641;80;21172;-63
2020/12/26 05:52:13;;;;;;;1.43;0.60;;;;;;;0.73;73.73;99371.56;1735939;80;21614;-62
2020/12/26 05:54:51;;;;;;;1.40;0.63;;;;;;;0.71;73.77;99380.86;1735136;80;21185;-62
2020/12/26 05:57:19;;;;;;;1.30;0.70;;;;;;;0.68;73.83;99382.21;1733867;80;21895;-62
2020/12/26 05:59:52;;;;;;;1.27;0.77;;;;;;;0.64;73.94;99387.59;1736429;80;21109;-61
2020/12/26 06:02:27;;;;;;;2.53;1.33;;;;;;;0.60;74.05;99389.84;1735140;80;21168;-62
2020/12/26 06:05:02;;;;;;;2.93;0.90;;;;;;;0.57;74.16;99386.81;1675044;83;21208;-63
2020/12/26 06:07:33;;;;;;;3.00;1.40;;;;;;;0.53;74.31;99389.50;1738808;80;21737;-63
2020/12/26 06:10:03;;;;;;;2.43;1.27;;;;;;;0.48;74.41;99381.64;1733366;80;21219;-61
2020/12/26 06:12:31;;;;;;;2.60;1.20;;;;;;;0.45;74.54;99386.97;1731112;80;21225;-62
2020/12/26 06:14:59;;;;;;;2.17;1.20;;;;;;;0.44;74.57;99395.80;1733898;80;21196;-62
2020/12/26 06:17:32;;;;;;;3.40;1.50;;;;;;;0.40;74.65;99395.88;1740602;80;22420;-62
2020/12/26 06:20:03;;;;;;;2.77;1.40;;;;;;;0.37;74.80;99395.02;1746694;80;21243;-62
2020/12/26 06:22:52;;;;;;;1.87;1.00;;;;;;;0.38;74.91;99409.13;1743183;80;21627;-62
2020/12/26 06:25:21;;;;;;;2.13;1.07;;;;;;;0.36;75.04;99414.88;1743958;80;21982;-62
2020/12/26 06:27:59;;;;;;;3.67;1.80;;;;;;;0.32;75.15;99407.45;1743082;80;21238;-61
2020/12/26 06:30:28;;;;;;;1.93;1.20;;;;;;;0.29;75.26;99408.80;1741287;80;21384;-62
2020/12/26 06:32:56;;;;;;;2.40;1.40;;;;;;;0.28;75.37;99416.30;1741914;80;21242;-61
2020/12/26 06:35:23;;;;;;;3.70;1.00;;;;;;;0.28;75.43;99417.62;1744011;80;21135;-62
2020/12/26 06:38:18;;;;;;;3.07;1.30;;;;;;;0.28;75.50;99422.05;1742423;80;21211;-61
2020/12/26 06:41:02;;;;;;;2.73;1.30;;;;;;;0.26;75.48;99431.77;1747674;80;21112;-61
2020/12/26 06:43:52;;;;;;;2.83;1.10;;;;;;;0.22;75.62;99428.75;1746448;80;21341;-60
2020/12/26 06:46:27;;;;;;;1.30;1.03;;;;;;;0.19;75.70;99429.65;1741400;80;21552;-61
2020/12/26 06:48:58;;;;;;;2.53;1.00;;;;;;;0.19;75.80;99436.71;1742348;80;21459;-61
2020/12/26 06:51:34;;;;;;;1.50;0.90;;;;;;;0.19;75.86;99436.71;1743353;80;21168;-62
2020/12/26 06:54:07;;;;;;;1.30;0.80;;;;;;;0.19;75.88;99442.00;1744706;80;21144;-62
2020/12/26 06:56:45;;;;;;;1.63;1.00;;;;;;;0.22;75.94;99436.69;1741871;80;21590;-62
2020/12/26 06:59:13;;;;;;;1.57;0.60;;;;;;;0.25;75.97;99432.25;1742223;80;21658;-62
2020/12/26 07:01:45;;;;;;;1.27;0.50;;;;;;;0.30;75.96;99444.09;1709610;80;21232;-62
2020/12/26 07:04:21;;;;;;;0.50;0.40;;;;;;;0.34;75.95;99449.80;1740538;80;21191;-62
2020/12/26 07:06:52;;;;;;;0.53;0.37;;;;;;;0.38;75.95;99452.37;1740306;80;21239;-62
2020/12/26 07:09:38;;;;;;;0.57;0.30;;;;;;;0.45;75.94;99453.16;1740585;80;22784;-62
2020/12/26 07:12:09;;;;;;;1.13;0.40;;;;;;;0.52;75.94;99450.86;1738706;80;21203;-62
2020/12/26 07:14:38;;;;;;;1.07;0.40;;;;;;;0.60;75.90;99452.08;1746342;80;21180;-61
2020/12/26 07:17:17;;;;;;;0.57;0.37;;;;;;;0.67;75.83;99455.11;1743268;80;21199;-62
2020/12/26 07:19:48;;;;;;;0.50;0.30;;;;;;;0.74;75.78;99448.83;1743833;80;21188;-61
2020/12/26 07:22:29;;;;;;;0.57;0.40;;;;;;;0.80;75.74;99442.55;1742524;80;21209;-62
2020/12/26 07:25:07;;;;;;;0.80;0.50;;;;;;;0.88;75.65;99450.83;1688671;82;21173;-62
2020/12/26 07:27:39;;;;;;;0.70;0.40;;;;;;;0.94;75.63;99448.52;1689300;82;21187;-61
2020/12/26 07:30:18;;;;;;;1.00;0.50;;;;;;;1.01;75.58;99454.19;1742405;80;21184;-62
2020/12/26 07:32:49;;;;;;;0.70;0.40;;;;;;;1.07;75.53;99449.67;1741680;80;21159;-62
2020/12/26 07:35:25;;;;;;;0.60;0.40;;;;;;;1.16;75.46;99454.41;1742911;80;21201;-61
2020/12/26 07:38:01;;;;;;;1.70;0.50;;;;;;;1.22;75.42;99459.16;1742591;80;21148;-62
2020/12/26 07:40:38;;;;;;;1.43;0.50;;;;;;;1.31;75.32;99468.74;1742570;80;21847;-62
2020/12/26 07:43:11;;;;;;;1.43;0.73;;;;;;;1.39;75.36;99467.72;1739497;80;21255;-61
2020/12/26 07:45:40;;;;;;;1.90;0.70;;;;;;;1.48;75.21;99466.70;1738749;80;21211;-60
2020/12/26 07:48:08;;;;;;;0.80;0.60;;;;;;;1.60;75.03;99469.61;1688851;82;21224;-61
2020/12/26 07:50:40;;;;;;;1.30;0.50;;;;;;;1.71;74.91;99471.16;1743864;80;21819;-62
2020/12/26 07:53:10;;;;;;;0.90;0.60;;;;;;;1.84;74.65;99471.39;1745488;80;21203;-63
2020/12/26 07:55:38;;;;;;;0.90;0.50;;;;;;;1.97;74.48;99473.36;1744703;80;21192;-62
2020/12/26 07:58:13;;;;;;;2.90;0.70;;;;;;;2.10;74.08;99480.22;1744318;80;21184;-62
2020/12/26 08:00:42;;;;;;;1.47;0.60;;;;;;;2.20;73.87;99491.09;1745021;80;21434;-62
2020/12/26 08:03:11;;;;;;;1.53;0.60;;;;;;;2.26;73.67;99492.75;1740118;80;21227;-62
2020/12/26 08:05:48;;;;;;;1.40;0.57;;;;;;;2.30;73.50;99487.78;1744264;80;21510;-59
2020/12/26 08:11:01;;;;;;;0.93;0.60;;;;;;;2.42;73.08;99482.25;1825839;76;26611;-60
2020/12/26 08:13:31;;;;;;;1.17;0.60;;;;;;;2.42;72.87;99484.03;1805061;77;21976;-61
2020/12/26 08:16:03;;;;;;;1.00;0.60;;;;;;;2.42;72.80;99490.67;1793382;77;23607;-62
2020/12/26 08:18:31;;;;;;;1.27;0.60;;;;;;;2.45;72.73;99486.64;1795026;77;21154;-60
2020/12/26 08:20:59;;;;;;;1.20;0.80;;;;;;;2.53;72.70;99497.53;1790179;77;21004;-63
2020/12/26 08:23:26;;;;;;;1.13;0.60;;;;;;;2.62;72.51;99513.30;1796949;77;21166;-64
2020/12/26 08:26:00;;;;;;;1.57;0.80;;;;;;;2.70;72.40;99505.62;1791518;77;21147;-62
2020/12/26 08:28:29;;;;;;;;;;;;;;;2.79;72.28;99501.44;1796330;77;21771;-59
2020/12/26 08:30:57;;;;;;;1.13;0.60;;;;;;;2.89;72.06;99501.67;1797510;77;20414;-62
2020/12/26 08:33:34;;;;;;;1.53;0.60;;;;;;;2.96;71.76;99494.86;1751815;77;21434;-62
2020/12/26 08:36:33;;;;;;;2.43;0.63;;;;;;;2.97;71.58;99503.27;1800740;77;21202;-60
2020/12/26 08:39:00;;;;;;;1.20;0.70;;;;;;;2.96;71.47;99499.30;1769410;78;21082;-60
2020/12/26 08:41:28;;;;;;;1.70;0.87;;;;;;;2.91;71.41;99493.19;1743726;80;21194;-59
2020/12/26 08:43:55;;;;;;;2.83;1.20;;;;;;;2.87;71.41;99496.38;1719288;81;21218;-58
2020/12/26 08:46:25;;;;;;;2.37;1.10;;;;;;;2.81;71.47;99487.19;1685836;82;21313;-61
2020/12/26 08:48:55;;;;;;;2.53;1.33;;;;;;;2.75;71.49;99474.04;1723693;81;21885;-59
2020/12/26 08:51:25;;;;;;;3.10;1.40;;;;;;;2.70;71.54;99459.11;1726741;81;21257;-59
2020/12/26 08:53:54;;;;;;;4.60;1.30;;;;;;;2.65;71.58;99456.53;1717730;81;21650;-59
2020/12/26 08:56:36;;;;;;;3.57;1.30;;;;;;;2.60;71.62;99451.33;1720645;81;21238;-59
2020/12/26 08:59:04;;;;;;;3.00;1.00;;;;;;;2.56;71.75;99455.39;1724061;81;21193;-60
2020/12/26 09:01:31;;;;;;;2.90;0.97;;;;;;;2.52;71.92;99445.75;1726398;81;21131;-60
2020/12/26 09:03:59;;;;;;;2.73;1.00;;;;;;;2.50;72.08;99450.21;1725834;81;21111;-59
2020/12/26 09:06:39;;;;;;;2.17;0.70;;;;;;;2.52;72.21;99441.77;1726190;81;22228;-60
2020/12/26 09:09:18;;;;;;;1.30;0.67;;;;;;;2.56;72.32;99443.44;1723329;81;21535;-61
2020/12/26 09:11:46;;;;;;;2.77;0.93;;;;;;;2.59;72.39;99443.38;1722426;81;21157;-59
2020/12/26 09:14:20;;;;;;;1.50;0.80;;;;;;;2.63;72.60;99450.39;1722752;81;21556;-60
2020/12/26 09:16:57;;;;;;;1.20;0.70;;;;;;;2.65;72.68;99460.52;1721666;81;21533;-59
2020/12/26 09:19:25;;;;;;;1.93;1.03;;;;;;;2.69;72.78;99469.31;1724240;81;21255;-60
2020/12/26 09:22:07;;;;;;;1.67;0.77;;;;;;;2.70;72.75;99475.93;1735855;81;21134;-59
2020/12/26 09:24:34;;;;;;;2.37;0.90;;;;;;;2.71;72.66;99471.05;1725827;81;21134;-61
2020/12/26 09:27:02;;;;;;;4.73;1.40;;;;;;;2.70;72.74;99474.60;1726660;81;21642;-61
2020/12/26 09:29:29;;;;;;;1.77;1.10;;;;;;;2.70;72.81;99485.69;1725502;81;21210;-59
2020/12/26 09:31:56;;;;;;;1.63;0.87;;;;;;;2.71;72.87;99488.31;1727463;81;21377;-59
2020/12/26 09:34:25;;;;;;;4.70;0.83;;;;;;;2.71;72.84;99499.39;1728071;81;21217;-59
2020/12/26 09:37:07;;;;;;;2.10;1.20;;;;;;;2.71;72.99;99502.94;1726567;81;21245;-62
2020/12/26 09:39:37;;;;;;;1.13;0.70;;;;;;;2.76;72.94;99500.16;1724928;81;21193;-61
2020/12/26 09:42:05;;;;;;;2.00;0.80;;;;;;;2.80;72.94;99498.76;1727050;81;21136;-58
2020/12/26 09:44:32;;;;;;;2.57;0.80;;;;;;;2.84;72.93;99504.87;1727453;81;21527;-59
2020/12/26 09:47:03;;;;;;;1.40;0.83;;;;;;;2.86;72.78;99506.59;1726394;81;21616;-60
2020/12/26 09:49:31;;;;;;;1.07;0.70;;;;;;;2.87;72.78;99522.97;1695097;82;21453;-60
2020/12/26 09:51:59;;;;;;;1.20;0.80;;;;;;;2.86;72.79;99518.56;1696692;82;21206;-59
2020/12/26 09:54:26;;;;;;;3.20;1.10;;;;;;;2.86;72.86;99513.69;1695173;82;21205;-61
2020/12/26 09:56:54;;;;;;;1.40;0.80;;;;;;;2.83;72.90;99518.61;1698700;82;21306;-59
2020/12/26 09:59:21;;;;;;;2.10;0.80;;;;;;;2.81;72.93;99520.87;1695254;82;21611;-60
2020/12/26 10:01:50;;;;;;;3.87;1.20;;;;;;;2.78;72.94;99530.25;1694806;82;21194;-62
2020/12/26 10:04:18;;;;;;;2.20;1.10;;;;;;;2.75;72.92;99531.18;1694470;82;21222;-59
2020/12/26 10:06:45;;;;;;;1.47;0.80;;;;;;;2.71;73.02;99535.28;1693889;82;21293;-58
2020/12/26 10:09:13;;;;;;;2.53;0.90;;;;;;;2.72;73.17;99533.05;1696203;82;22435;-61
2020/12/26 10:11:41;;;;;;;1.73;0.90;;;;;;;2.72;73.29;99536.58;1697401;82;21867;-61
2020/12/26 10:14:09;;;;;;;3.77;1.20;;;;;;;2.74;73.32;99528.55;1699176;82;21223;-58
2020/12/26 10:16:37;;;;;;;2.93;1.00;;;;;;;2.70;73.32;99533.07;1694749;82;21253;-58
2020/12/26 10:19:05;;;;;;;6.87;1.00;;;;;;;2.69;73.60;99528.66;1668176;84;21206;-59
2020/12/26 10:21:33;;;;;;;2.27;1.20;;;;;;;2.69;73.66;99534.42;1668748;84;21356;-59
2020/12/26 10:24:01;;;;;;;3.10;1.40;;;;;;;2.69;73.81;99526.45;1696908;82;21660;-59
2020/12/26 10:26:28;;;;;;;3.17;0.80;;;;;;;2.70;73.94;99531.74;1697806;82;21218;-59
2020/12/26 10:28:55;;;;;;;2.33;1.00;;;;;;;2.75;73.98;99531.18;1698864;82;21202;-59
2020/12/26 10:31:29;;;;;;;2.90;0.90;;;;;;;2.81;74.16;99537.69;1693297;82;21767;-60
2020/12/26 10:33:56;;;;;;;1.55;0.82;;;;;;;2.85;74.13;99538.52;1693529;82;22124;-58
2020/12/26 10:36:23;;;;;;;2.60;0.93;;;;;;;2.89;74.12;99542.88;1695535;82;22097;-58
2020/12/26 10:38:53;;;;;;;1.60;1.00;;;;;;;2.93;74.02;99547.21;1691575;82;21605;-57
2020/12/26 10:41:21;;;;;;;1.00;0.80;;;;;;;2.94;73.97;99545.86;1727943;81;21209;-58
2020/12/26 10:43:48;;;;;;;1.87;0.80;;;;;;;2.96;73.88;99549.82;1705404;82;21592;-56
2020/12/26 10:46:15;;;;;;;4.53;1.40;;;;;;;2.97;73.73;99553.78;1731092;81;21197;-58
2020/12/26 10:48:43;;;;;;;2.87;1.10;;;;;;;2.98;73.74;99550.19;1725911;81;22255;-60
2020/12/26 10:51:10;;;;;;;2.07;0.80;;;;;;;2.99;73.69;99545.30;1725954;81;21197;-61
2020/12/26 10:53:38;;;;;;;1.90;0.70;;;;;;;3.02;73.57;99553.22;1725184;81;21743;-60
2020/12/26 10:56:08;;;;;;;1.23;0.70;;;;;;;3.03;73.49;99554.09;1705880;82;21188;-57
2020/12/26 10:58:38;;;;;;;1.93;0.70;;;;;;;3.04;73.50;99550.08;1723757;81;21541;-57
2020/12/26 11:01:06;;;;;;;2.27;0.70;;;;;;;3.06;73.38;99558.03;1709477;82;21149;-58
2020/12/26 11:03:34;;;;;;;1.67;0.70;;;;;;;3.07;73.41;99553.11;1726105;81;21260;-56
2020/12/26 11:06:02;;;;;;;1.70;0.70;;;;;;;3.09;73.35;99569.03;1696561;82;21190;-61
2020/12/26 11:08:30;;;;;;;2.27;0.70;;;;;;;3.05;73.27;99565.58;1726393;81;21114;-58
2020/12/26 11:10:59;;;;;;;2.07;1.10;;;;;;;3.03;73.29;99554.09;1722927;81;22390;-61
2020/12/26 11:13:27;;;;;;;2.03;1.00;;;;;;;3.02;73.19;99561.20;1726105;81;21827;-58
2020/12/26 11:15:56;;;;;;;1.47;0.87;;;;;;;3.02;73.26;99555.00;1727868;81;21225;-61
2020/12/26 11:18:26;;;;;;;2.50;0.90;;;;;;;3.00;73.24;99560.80;1701780;82;21586;-57
2020/12/26 11:20:55;;;;;;;2.87;1.00;;;;;;;2.99;73.27;99552.39;1727798;81;21197;-60
2020/12/26 11:23:23;;;;;;;2.83;0.90;;;;;;;2.99;73.22;99555.93;1727867;81;21353;-58
2020/12/26 11:25:52;;;;;;;2.80;1.20;;;;;;;2.99;73.31;99555.93;1728023;81;21234;-57
2020/12/26 11:28:22;;;;;;;1.97;0.90;;;;;;;2.99;73.39;99555.05;1724902;81;21170;-57
2020/12/26 11:30:51;;;;;;;1.60;1.00;;;;;;;2.97;73.46;99558.22;1702180;81;21169;-57
2020/12/26 11:33:19;;;;;;;1.87;0.90;;;;;;;2.95;73.54;99556.04;1728061;81;21194;-58
2020/12/26 11:35:47;;;;;;;2.10;1.20;;;;;;;2.94;73.65;99555.61;1700235;82;21663;-59
2020/12/26 11:38:15;;;;;;;3.03;1.00;;;;;;;2.92;73.71;99558.30;1723759;81;21451;-58
2020/12/26 11:40:43;;;;;;;2.83;0.83;;;;;;;2.87;73.78;99556.20;1715687;81;21183;-58
2020/12/26 11:43:11;;;;;;;2.57;0.83;;;;;;;2.86;73.93;99551.78;1711195;81;21210;-57
2020/12/26 11:45:41;;;;;;;3.07;0.90;;;;;;;2.89;74.00;99545.05;1713798;81;21216;-60
2020/12/26 11:48:09;;;;;;;3.00;1.20;;;;;;;2.90;74.09;99540.16;1693723;82;21661;-57
2020/12/26 11:50:36;;;;;;;2.30;1.00;;;;;;;2.94;74.02;99539.66;1717732;81;21187;-57
2020/12/26 11:53:04;;;;;;;2.87;1.10;;;;;;;2.95;74.04;99527.67;1698756;83;21167;-58
2020/12/26 11:55:32;;;;;;;3.30;1.20;;;;;;;2.97;74.16;99532.97;1716767;81;21498;-58
2020/12/26 11:58:00;;;;;;;4.90;1.20;;;;;;;2.98;74.12;99543.54;1712063;83;21190;-59